Flag for Spain

Past Weather in 36°37'18.4"N, 4°30'00.9"W, Spain — Yesterday and Last 2 Weeks

Currently: 68 °F. Passing clouds. (Weather station: Malaga / Aeropuerto, Spain). See more current weather

Past Weather in 36°37'18.4"N, 4°30'00.9"W — Graph

°F

36°37'18.4"N, 4°30'00.9"W Temperature Yesterday

Maximum temperature yesterday: 66 °F (at 12:30 pm)
Minimum temperature yesterday: 48 °F (at 8:00 am)
Average temperature yesterday: 59 °F

High & Low Weather Summary for the Past Weeks

 TemperatureHumidityPressure
High79 °F (Apr 6, 6:00 pm)100% (Mar 30, 1:30 pm)30.48 "Hg (Mar 30, 1:30 pm)
Low43 °F (Apr 1, 6:30 am)25% (Apr 8, 1:00 pm)29.42 "Hg (Mar 30, 5:00 pm)
Average60 °F71%30.04 "Hg
* Reported Mar 29 1:00 pm — Apr 13 2:30 pm, 36°37'18.4"N, 4°30'00.9"W. Weather by CustomWeather, © 2024

Note: Actual official high and low records may vary slightly from our data, if they occured in-between our weather recording intervals... More about our weather records

36°37'18.4"N, 4°30'00.9"W Weather History for the Previous 24 Hours

Scroll right to see more
 ConditionsComfort  
Time TempWeatherWind HumidityBarometerVisibility
2:30 pm
Sat, Apr 13
68 °FPassing clouds.7 mph53%30.33 "HgN/A
2:00 pm66 °FPassing clouds.7 mph52%30.33 "HgN/A
1:30 pm68 °FPassing clouds.8 mph46%30.33 "HgN/A
1:00 pm66 °FPassing clouds.8 mph52%30.36 "HgN/A
12:30 pm68 °FPassing clouds.7 mph49%30.36 "HgN/A
12:00 pm66 °FSunny.8 mph46%30.36 "Hg10 mi
11:30 am68 °FPassing clouds.5 mph46%30.36 "HgN/A
11:00 am64 °FPassing clouds.3 mph60%30.36 "HgN/A
10:30 am59 °FSunny.5 mph68%30.36 "Hg10 mi
10:00 am57 °FSunny.8 mph72%30.36 "Hg10 mi
9:00 am52 °FSunny.6 mph82%30.36 "Hg10 mi
8:30 am50 °FSunny.8 mph88%30.36 "Hg10 mi
8:00 am50 °FSunny.9 mph88%30.36 "Hg10 mi
7:30 am50 °FClear.8 mph88%30.36 "Hg10 mi
7:00 am50 °FClear.7 mph88%30.36 "Hg10 mi
6:30 am50 °FClear.9 mph88%30.36 "Hg10 mi
6:00 am50 °FClear.9 mph88%30.36 "Hg10 mi
5:30 am50 °FClear.10 mph88%30.36 "Hg10 mi
5:00 am50 °FClear.6 mph88%30.36 "Hg10 mi
4:30 am52 °FClear.6 mph82%30.36 "Hg10 mi
4:00 am54 °FClear.10 mph82%30.36 "Hg10 mi
3:30 am52 °FClear.6 mph82%30.36 "Hg10 mi
3:00 am54 °FClear.7 mph82%30.39 "Hg10 mi
2:30 am54 °FClear.6 mph82%30.39 "Hg10 mi
2:00 am54 °FClear.6 mph82%30.39 "Hg10 mi
1:30 am55 °FClear.3 mph77%30.39 "Hg10 mi
1:00 am55 °FClear.3 mph77%30.39 "Hg10 mi
12:30 am57 °FClear.No wind77%30.42 "Hg10 mi
12:00 am57 °FClear.No wind77%30.42 "Hg10 mi
11:30 pm
Fri, Apr 12
57 °FClear.No wind77%30.42 "Hg10 mi
11:00 pm59 °FClear.1 mph72%30.39 "Hg10 mi
10:30 pm61 °FClear.1 mph72%30.39 "Hg10 mi
10:00 pm61 °FClear.1 mph72%30.39 "Hg10 mi
9:30 pm61 °FClear.2 mph68%30.39 "Hg10 mi
9:00 pm61 °FPassing clouds.3 mph68%30.39 "HgN/A
8:30 pm63 °FPassing clouds.5 mph59%30.39 "HgN/A
8:00 pm63 °FPassing clouds.3 mph64%30.39 "HgN/A
7:30 pm63 °FPassing clouds.6 mph64%30.39 "HgN/A
7:00 pm63 °FPassing clouds.6 mph68%30.39 "HgN/A
6:30 pm64 °FPassing clouds.6 mph64%30.39 "HgN/A
6:00 pm64 °FPassing clouds.8 mph68%30.39 "HgN/A
5:30 pm64 °FPassing clouds.8 mph68%30.39 "HgN/A
5:00 pm64 °FPassing clouds.10 mph64%30.42 "HgN/A
4:30 pm64 °FPassing clouds.12 mph64%30.42 "HgN/A
4:00 pm66 °FPassing clouds.10 mph64%30.42 "HgN/A
3:30 pm66 °FPassing clouds.12 mph64%30.45 "HgN/A
3:00 pm66 °FPassing clouds.13 mph64%30.45 "HgN/A
Weather by CustomWeather, © 2024

See weather overview